Time;durP1;ratioP1;P1;durP2;ratioP2;P2;SDS_P1;SDS_P2;PMS_P1;PMS_P2;Temp;Humidity;BMP_temperature;BMP_pressure;BME280_temperature;BME280_humidity;BME280_pressure;Samples;Min_cycle;Max_cycle;Signal;HPM_P1;HPM_P2
2023/08/21 00:00:01;;;;;;;1.38;0.80;;;;;;;19.18;73.80;102399.09;5015673;28;96632;-26
2023/08/21 00:02:27;;;;;;;0.80;0.55;;;;;;;19.20;73.19;102410.88;5014470;28;97030;-26
2023/08/21 00:04:54;;;;;;;0.70;0.57;;;;;;;19.16;73.44;102405.72;5013833;28;101445;-26
2023/08/21 00:07:19;;;;;;;2.10;0.55;;;;;;;19.19;73.27;102405.50;5013713;28;101013;-26
2023/08/21 00:09:45;;;;;;;0.90;0.35;;;;;;;19.20;74.01;102407.25;5015043;28;96607;-28
2023/08/21 00:12:10;;;;;;;0.73;0.50;;;;;;;19.16;74.62;102402.97;5015000;28;96757;-31
2023/08/21 00:14:35;;;;;;;1.45;0.68;;;;;;;19.19;74.22;102408.25;5014569;28;97589;-26
2023/08/21 00:17:02;;;;;;;1.05;0.50;;;;;;;19.13;74.10;102408.69;5014842;28;99112;-26
2023/08/21 00:19:28;;;;;;;2.25;0.50;;;;;;;19.10;74.35;102404.28;5015006;28;96610;-26
2023/08/21 00:21:53;;;;;;;4.40;0.77;;;;;;;19.10;74.27;102413.41;5015626;28;96894;-26
2023/08/21 00:24:19;;;;;;;3.10;0.60;;;;;;;19.04;74.50;102402.88;5015240;28;97369;-26
2023/08/21 00:26:44;;;;;;;2.40;1.08;;;;;;;19.06;74.60;102420.09;5015408;28;97347;-26
2023/08/21 00:29:09;;;;;;;2.25;0.70;;;;;;;19.03;74.31;102408.47;5015127;28;96631;-26
2023/08/21 00:31:35;;;;;;;3.50;1.02;;;;;;;19.01;74.23;102410.44;5015235;28;96798;-27
2023/08/21 00:34:00;;;;;;;1.95;0.47;;;;;;;19.01;74.43;102413.19;5014448;28;97781;-28
2023/08/21 00:36:26;;;;;;;1.63;0.85;;;;;;;19.00;74.30;102411.47;5014742;28;97824;-27
2023/08/21 00:38:51;;;;;;;1.45;0.65;;;;;;;18.98;74.88;102406.06;5014903;28;96877;-26
2023/08/21 00:41:16;;;;;;;1.02;0.80;;;;;;;18.94;74.70;102401.78;5014602;28;96841;-26
2023/08/21 00:43:42;;;;;;;1.40;0.40;;;;;;;18.92;74.60;102391.91;5014550;28;98244;-26
2023/08/21 00:46:07;;;;;;;1.80;0.75;;;;;;;18.87;74.53;102397.72;5014410;28;98957;-26
2023/08/21 00:48:33;;;;;;;2.40;0.63;;;;;;;18.85;75.25;102392.34;5014578;28;96593;-26
2023/08/21 00:50:59;;;;;;;0.60;0.50;;;;;;;18.88;75.28;102391.25;5015112;28;96980;-26
2023/08/21 00:53:25;;;;;;;2.40;0.98;;;;;;;18.86;75.83;102393.22;5014669;28;98135;-26
2023/08/21 00:55:50;;;;;;;1.38;0.45;;;;;;;18.86;75.72;102395.97;5013129;28;100997;-26
2023/08/21 00:58:16;;;;;;;2.92;0.82;;;;;;;18.86;75.60;102398.72;5014158;28;96563;-26
2023/08/21 01:00:45;;;;;;;1.38;0.80;;;;;;;18.82;75.88;102391.69;5012269;28;96926;-26
2023/08/21 01:03:10;;;;;;;1.77;0.60;;;;;;;18.81;75.80;102388.06;5012863;28;100766;-26
2023/08/21 01:05:36;;;;;;;2.00;0.70;;;;;;;18.79;76.41;102390.03;5014541;28;97312;-27
2023/08/21 01:08:05;;;;;;;2.00;0.82;;;;;;;18.82;75.82;102388.94;5013015;28;96775;-26
2023/08/21 01:10:45;;;;;;;1.17;0.60;;;;;;;18.84;76.06;102396.06;5014310;28;96819;-30
2023/08/21 01:13:31;;;;;;;3.42;0.93;;;;;;;18.82;76.31;102403.53;5012787;28;101249;-26
2023/08/21 01:15:58;;;;;;;2.80;0.77;;;;;;;18.75;76.62;102402.19;5012542;28;100866;-27
2023/08/21 01:18:26;;;;;;;1.30;0.70;;;;;;;18.78;76.61;102395.63;5012821;28;96731;-27
2023/08/21 01:20:52;;;;;;;2.00;0.73;;;;;;;18.71;76.01;102392.44;5014177;28;96771;-26
2023/08/21 01:23:37;;;;;;;2.15;0.68;;;;;;;18.78;77.48;102403.88;5012018;28;100945;-27
2023/08/21 01:26:04;;;;;;;1.13;0.50;;;;;;;18.71;76.58;102402.50;5012521;28;99024;-26
2023/08/21 01:28:30;;;;;;;1.50;0.73;;;;;;;18.73;78.17;102406.91;5012725;28;96865;-26
2023/08/21 01:31:11;;;;;;;2.13;0.88;;;;;;;18.74;77.61;102411.41;5012699;28;96909;-26
2023/08/21 01:33:44;;;;;;;0.93;0.45;;;;;;;18.71;78.02;102411.66;5013871;28;97477;-27
2023/08/21 01:36:10;;;;;;;1.45;0.73;;;;;;;18.70;77.40;102404.38;5012492;28;101236;-26
2023/08/21 01:38:36;;;;;;;1.90;0.88;;;;;;;18.70;77.09;102409.00;5012331;28;96620;-27
2023/08/21 01:41:02;;;;;;;1.38;0.63;;;;;;;18.68;78.40;102409.97;5014609;28;96785;-28
2023/08/21 01:43:28;;;;;;;3.03;0.55;;;;;;;18.65;78.20;102412.94;5012432;28;99584;-27
2023/08/21 01:45:54;;;;;;;0.93;0.50;;;;;;;18.63;78.20;102406.69;5012254;28;100847;-27
2023/08/21 01:48:19;;;;;;;3.60;0.90;;;;;;;18.62;77.87;102409.56;4995280;28;96921;-27
2023/08/21 01:50:45;;;;;;;3.15;0.73;;;;;;;18.67;77.93;102421.09;5013941;28;96768;-26
2023/08/21 01:53:10;;;;;;;1.42;0.70;;;;;;;18.61;78.88;102413.25;5013379;28;99047;-27
2023/08/21 01:55:35;;;;;;;3.40;0.80;;;;;;;18.64;78.59;102422.19;5013677;28;97742;-26
2023/08/21 01:58:01;;;;;;;1.33;0.75;;;;;;;18.63;78.23;102416.78;5013444;28;96537;-26
2023/08/21 02:00:26;;;;;;;0.90;0.45;;;;;;;18.60;79.33;102414.28;5014084;28;96768;-27
2023/08/21 02:02:51;;;;;;;0.80;0.57;;;;;;;18.63;78.53;102409.41;5013330;28;97528;-26
2023/08/21 02:05:17;;;;;;;1.85;0.75;;;;;;;18.59;78.03;102409.75;5013955;28;97340;-26
2023/08/21 02:07:42;;;;;;;1.08;0.73;;;;;;;18.59;78.36;102407.00;5013500;28;96746;-26
2023/08/21 02:10:08;;;;;;;3.05;0.75;;;;;;;18.60;78.51;102415.13;5013679;28;96820;-27
2023/08/21 02:12:33;;;;;;;2.90;0.63;;;;;;;18.58;78.72;102410.75;5012611;28;97971;-26
2023/08/21 02:14:59;;;;;;;2.42;0.75;;;;;;;18.54;78.87;102410.06;5013033;28;97986;-26
2023/08/21 02:17:27;;;;;;;1.20;0.80;;;;;;;18.54;78.76;102410.06;5013077;28;96582;-27
2023/08/21 02:19:52;;;;;;;0.70;0.45;;;;;;;18.46;79.07;102409.75;5011834;28;97030;-26
2023/08/21 02:22:18;;;;;;;1.58;0.55;;;;;;;18.49;79.36;102409.53;5013244;28;97938;-26
2023/08/21 02:24:43;;;;;;;3.20;0.88;;;;;;;18.48;78.80;102413.25;5013185;28;97921;-26
2023/08/21 02:27:08;;;;;;;1.88;0.93;;;;;;;18.45;79.32;102408.00;5013003;28;96670;-26
2023/08/21 02:29:34;;;;;;;2.63;1.15;;;;;;;18.42;79.02;102409.09;5013590;28;96514;-26
2023/08/21 02:31:59;;;;;;;3.28;0.80;;;;;;;18.45;79.14;102414.34;5012720;28;97884;-26
2023/08/21 02:34:25;;;;;;;2.08;0.70;;;;;;;18.44;79.54;102411.72;5012738;28;99308;-26
2023/08/21 02:36:50;;;;;;;1.00;0.63;;;;;;;18.39;79.30;102405.66;5012507;28;96716;-26
2023/08/21 02:39:15;;;;;;;5.47;0.52;;;;;;;18.37;80.18;102408.50;5012886;28;96901;-26
2023/08/21 02:41:41;;;;;;;1.83;0.68;;;;;;;18.33;80.11;102409.72;5012823;28;97886;-26
2023/08/21 02:44:06;;;;;;;0.90;0.47;;;;;;;18.32;80.33;102409.81;5012823;28;97830;-26
2023/08/21 02:46:33;;;;;;;1.65;0.88;;;;;;;18.31;79.76;102403.47;5012907;28;96653;-26
2023/08/21 02:48:58;;;;;;;1.20;0.70;;;;;;;18.26;79.83;102397.44;5012718;28;96803;-27
2023/08/21 02:51:24;;;;;;;0.70;0.50;;;;;;;18.21;80.12;102405.97;5012848;28;97920;-26
2023/08/21 02:53:49;;;;;;;3.28;0.95;;;;;;;18.20;80.86;102401.44;5013128;28;97838;-27
2023/08/21 02:56:14;;;;;;;4.97;0.73;;;;;;;18.19;79.89;102396.97;5012709;28;96544;-26
2023/08/21 02:58:40;;;;;;;1.00;0.60;;;;;;;18.16;80.13;102393.53;5012850;28;96774;-28
2023/08/21 03:01:05;;;;;;;1.08;0.68;;;;;;;18.19;79.87;102404.31;5011638;28;99355;-26
2023/08/21 03:03:32;;;;;;;3.28;0.70;;;;;;;18.13;79.98;102404.72;5012535;28;98004;-27
2023/08/21 03:05:57;;;;;;;1.83;0.60;;;;;;;18.09;79.49;102401.34;5011230;28;96615;-27
2023/08/21 03:08:23;;;;;;;0.98;0.70;;;;;;;18.10;80.28;102411.31;5012744;28;96804;-27
2023/08/21 03:10:48;;;;;;;2.40;0.50;;;;;;;18.06;80.90;102401.53;5012615;28;97406;-27
2023/08/21 03:13:13;;;;;;;2.17;0.82;;;;;;;18.07;80.44;102405.13;5012640;28;97200;-27
2023/08/21 03:15:39;;;;;;;1.45;0.60;;;;;;;18.05;80.17;102410.75;5012127;28;96756;-26
2023/08/21 03:18:04;;;;;;;1.70;0.93;;;;;;;17.98;80.35;102387.47;5012754;28;96874;-27
2023/08/21 03:20:30;;;;;;;1.27;0.75;;;;;;;18.02;80.65;102394.50;5012163;28;98970;-26
2023/08/21 03:22:55;;;;;;;1.48;0.85;;;;;;;17.96;80.62;102387.56;5011946;28;99309;-27
2023/08/21 03:25:20;;;;;;;0.60;0.50;;;;;;;18.05;80.46;102408.00;5011253;28;96508;-26
2023/08/21 03:27:49;;;;;;;2.03;0.77;;;;;;;18.00;79.98;102391.00;5012807;28;96878;-27
2023/08/21 03:30:15;;;;;;;1.17;0.60;;;;;;;18.04;80.69;102403.50;5010546;28;101523;-26
2023/08/21 03:32:40;;;;;;;1.25;0.60;;;;;;;18.00;80.66;102399.22;5010629;28;101465;-26
2023/08/21 03:35:06;;;;;;;0.73;0.55;;;;;;;18.00;80.68;102408.31;5012005;28;96544;-26
2023/08/21 03:37:32;;;;;;;2.05;0.70;;;;;;;17.95;80.94;102387.69;5012163;28;96786;-26
2023/08/21 03:39:57;;;;;;;0.65;0.55;;;;;;;17.95;80.32;102390.44;5011790;28;99415;-26
2023/08/21 03:42:22;;;;;;;0.70;0.60;;;;;;;17.98;80.56;102406.66;5012345;28;97806;-27
2023/08/21 03:44:49;;;;;;;1.45;0.80;;;;;;;17.96;81.14;102406.75;5012080;28;96584;-26
2023/08/21 03:47:18;;;;;;;2.65;0.47;;;;;;;17.97;80.27;102411.28;5011923;28;96802;-26
2023/08/21 03:49:43;;;;;;;3.20;0.77;;;;;;;17.97;80.53;102404.88;5009962;28;101161;-26
2023/08/21 03:52:08;;;;;;;1.67;0.70;;;;;;;17.93;80.41;102404.22;5011714;28;99103;-26
2023/08/21 03:54:34;;;;;;;1.10;0.70;;;;;;;17.90;80.36;102390.75;5012017;28;96513;-26
2023/08/21 03:56:59;;;;;;;1.73;0.70;;;;;;;17.91;80.74;102400.72;5012039;28;96793;-26
2023/08/21 03:59:27;;;;;;;2.90;0.60;;;;;;;17.95;80.63;102404.13;5011454;28;99247;-27
2023/08/21 04:01:53;;;;;;;0.77;0.60;;;;;;;17.89;81.16;102399.94;5010326;28;100944;-27
2023/08/21 04:04:18;;;;;;;1.27;0.80;;;;;;;17.95;80.83;102410.50;5010355;28;96618;-28
2023/08/21 04:06:44;;;;;;;2.28;0.68;;;;;;;17.93;80.41;102397.88;5012297;28;96823;-26
2023/08/21 04:09:10;;;;;;;1.98;0.57;;;;;;;17.96;80.59;102400.41;5011467;28;99543;-27
2023/08/21 04:11:36;;;;;;;2.22;0.75;;;;;;;17.92;81.02;102393.34;5009807;28;100915;-27
2023/08/21 04:14:01;;;;;;;1.55;0.63;;;;;;;17.94;80.95;102402.38;5010572;28;96555;-26
2023/08/21 04:16:28;;;;;;;1.17;0.63;;;;;;;17.93;81.04;102403.38;5010143;28;97156;-26
2023/08/21 04:18:53;;;;;;;2.60;1.00;;;;;;;17.97;81.06;102403.06;5009980;28;101491;-26
2023/08/21 04:21:18;;;;;;;0.85;0.55;;;;;;;17.98;81.29;102407.53;5011597;28;97131;-26
2023/08/21 04:23:48;;;;;;;1.20;0.70;;;;;;;17.91;81.25;102391.63;5011873;28;96717;-27
2023/08/21 04:26:13;;;;;;;2.30;0.82;;;;;;;17.92;81.24;102393.34;5010062;28;96691;-26
2023/08/21 04:28:38;;;;;;;1.23;0.70;;;;;;;17.93;81.35;102400.63;5011244;28;98106;-27
2023/08/21 04:31:05;;;;;;;1.95;0.80;;;;;;;17.92;81.46;102393.34;5011857;28;98061;-27
2023/08/21 04:33:30;;;;;;;2.75;0.75;;;;;;;17.93;80.62;102400.63;5010208;28;96631;-27
2023/08/21 04:35:56;;;;;;;2.20;0.70;;;;;;;17.93;80.71;102404.22;5012652;28;96783;-27
2023/08/21 04:38:21;;;;;;;3.33;0.88;;;;;;;17.92;81.01;102402.47;5013033;28;97961;-26
2023/08/21 04:40:46;;;;;;;1.88;0.70;;;;;;;17.91;81.20;102408.94;5014540;28;99488;-27
2023/08/21 04:43:12;;;;;;;1.63;0.80;;;;;;;17.95;81.92;102417.84;5014893;28;96720;-27
2023/08/21 04:45:37;;;;;;;1.58;0.80;;;;;;;17.96;81.29;102416.84;5014836;28;96828;-26
2023/08/21 04:48:04;;;;;;;1.10;0.73;;;;;;;17.91;80.99;102408.94;5014753;28;97467;-26
2023/08/21 04:50:30;;;;;;;3.45;0.75;;;;;;;17.94;81.51;102419.69;5013212;28;101331;-26
2023/08/21 04:52:55;;;;;;;2.10;0.85;;;;;;;17.95;81.53;102407.75;5015028;28;96553;-26
2023/08/21 04:55:21;;;;;;;2.35;0.65;;;;;;;17.94;81.41;102416.06;5014937;28;96715;-26
2023/08/21 04:57:46;;;;;;;1.35;0.68;;;;;;;17.91;81.59;102408.06;5014298;28;97863;-26
2023/08/21 05:00:12;;;;;;;2.63;0.68;;;;;;;17.94;81.35;102421.56;5014464;28;97278;-27
2023/08/21 05:02:37;;;;;;;1.00;0.50;;;;;;;17.92;81.38;102418.91;5014042;28;96537;-26
2023/08/21 05:05:03;;;;;;;2.55;0.90;;;;;;;17.92;81.50;102420.78;5014511;28;96806;-26
2023/08/21 05:07:28;;;;;;;3.55;0.93;;;;;;;17.93;80.91;102419.81;5012939;28;99519;-26
2023/08/21 05:09:54;;;;;;;4.63;0.93;;;;;;;17.92;81.32;102423.53;5014133;28;99284;-26
2023/08/21 05:12:19;;;;;;;3.28;1.05;;;;;;;17.92;81.66;102424.38;5014277;28;96800;-26
2023/08/21 05:14:44;;;;;;;2.63;1.45;;;;;;;17.86;81.56;102415.72;5013893;28;96902;-27
2023/08/21 05:17:10;;;;;;;4.80;0.93;;;;;;;17.86;81.19;102415.72;5014426;28;97321;-26
2023/08/21 05:19:35;;;;;;;2.97;1.05;;;;;;;17.91;81.72;102424.50;5014540;28;97257;-26
2023/08/21 05:22:00;;;;;;;2.17;1.00;;;;;;;17.86;81.11;102424.81;5014385;28;96531;-26
2023/08/21 05:24:26;;;;;;;3.88;0.98;;;;;;;17.83;81.42;102416.81;5014342;28;96780;-26
2023/08/21 05:26:51;;;;;;;3.00;1.13;;;;;;;17.93;81.48;102436.25;5013608;28;97975;-26
2023/08/21 05:29:16;;;;;;;1.30;1.00;;;;;;;17.93;81.44;102433.53;5013905;28;97810;-26
2023/08/21 05:31:42;;;;;;;2.03;1.10;;;;;;;17.91;81.50;102430.00;5014225;28;96508;-27
2023/08/21 05:34:08;;;;;;;2.13;1.00;;;;;;;17.93;81.97;102436.25;5012582;28;96871;-27
2023/08/21 05:36:33;;;;;;;2.85;1.17;;;;;;;17.92;81.46;102434.47;5013857;28;98136;-26
2023/08/21 05:38:58;;;;;;;1.75;0.88;;;;;;;17.94;81.43;102427.03;5013714;28;97236;-26
2023/08/21 05:41:24;;;;;;;5.50;1.02;;;;;;;18.00;81.74;102438.47;5014128;28;96477;-27
2023/08/21 05:43:49;;;;;;;2.13;1.00;;;;;;;18.00;81.42;102421.16;5014215;28;96820;-26
2023/08/21 05:46:14;;;;;;;1.38;0.73;;;;;;;18.05;81.60;102435.44;5013281;28;99312;-26
2023/08/21 05:48:40;;;;;;;5.18;1.00;;;;;;;18.08;81.48;102428.84;5013857;28;97903;-26
2023/08/21 05:51:05;;;;;;;4.95;1.30;;;;;;;18.10;81.49;102433.25;5013228;28;96527;-27
2023/08/21 05:53:31;;;;;;;2.20;0.98;;;;;;;18.15;81.09;102442.03;5013565;28;96790;-26
2023/08/21 05:55:56;;;;;;;3.63;1.27;;;;;;;18.19;81.32;102446.34;5013547;28;97889;-26
2023/08/21 05:58:23;;;;;;;2.42;1.17;;;;;;;18.21;81.27;102441.63;5013335;28;99277;-26
2023/08/21 06:00:48;;;;;;;2.53;1.05;;;;;;;18.22;80.98;102446.13;5013552;28;96619;-26
2023/08/21 06:03:13;;;;;;;3.47;0.95;;;;;;;18.20;80.92;102431.63;5013726;28;96847;-27
2023/08/21 06:05:39;;;;;;;4.65;1.15;;;;;;;18.24;81.08;102444.16;5013463;28;97502;-27
2023/08/21 06:08:04;;;;;;;5.72;1.10;;;;;;;18.30;81.16;102444.72;5013871;28;97312;-27
2023/08/21 06:10:31;;;;;;;3.75;0.90;;;;;;;18.33;80.68;102439.00;5013263;28;96615;-26
2023/08/21 06:12:57;;;;;;;4.55;1.23;;;;;;;18.41;80.63;102442.13;5013052;28;96844;-27
2023/08/21 06:15:22;;;;;;;3.60;1.10;;;;;;;18.48;80.04;102435.22;5012266;28;97615;-27
2023/08/21 06:17:47;;;;;;;3.05;0.93;;;;;;;18.62;80.42;102443.38;4995115;28;100785;-27
2023/08/21 06:20:13;;;;;;;4.25;0.95;;;;;;;18.75;80.06;102443.38;5013253;28;96658;-27
2023/08/21 06:22:39;;;;;;;1.67;1.00;;;;;;;18.86;80.37;102448.16;5011927;28;96984;-26
2023/08/21 06:25:05;;;;;;;2.63;0.85;;;;;;;18.92;80.16;102441.31;5013221;28;97302;-26
2023/08/21 06:27:30;;;;;;;2.22;0.98;;;;;;;19.04;80.32;102427.59;5013022;28;98489;-26
2023/08/21 06:29:56;;;;;;;6.00;1.20;;;;;;;19.17;79.70;102441.31;5013401;28;96604;-26
2023/08/21 06:32:22;;;;;;;4.80;1.35;;;;;;;19.29;79.64;102434.06;5013642;28;96859;-26
2023/08/21 06:34:47;;;;;;;5.82;1.38;;;;;;;19.40;78.73;102442.41;5011516;28;101056;-27
2023/08/21 06:37:12;;;;;;;3.83;1.30;;;;;;;19.52;79.44;102441.47;5012962;28;98285;-27
2023/08/21 06:39:38;;;;;;;5.32;1.38;;;;;;;19.64;78.78;102447.94;5012574;28;96407;-26
2023/08/21 06:42:04;;;;;;;3.38;1.30;;;;;;;19.80;78.80;102449.56;5012771;28;96837;-26
2023/08/21 06:44:29;;;;;;;5.47;1.77;;;;;;;19.92;78.81;102449.50;5011698;28;98014;-28
2023/08/21 06:46:54;;;;;;;3.20;1.30;;;;;;;20.07;78.41;102443.81;5012942;28;97920;-27
2023/08/21 06:49:20;;;;;;;5.25;1.30;;;;;;;20.24;78.03;102445.31;5013007;28;96792;-27
2023/08/21 06:51:45;;;;;;;6.13;1.45;;;;;;;20.41;77.28;102461.38;5013150;28;96803;-26
2023/08/21 06:54:10;;;;;;;4.25;1.38;;;;;;;20.60;77.05;102449.84;5012404;28;99545;-26
2023/08/21 06:56:36;;;;;;;4.13;1.27;;;;;;;20.78;76.01;102458.50;5012854;28;97971;-26
2023/08/21 06:59:02;;;;;;;7.05;1.48;;;;;;;20.91;75.71;102444.66;5011793;28;96831;-26
2023/08/21 07:01:28;;;;;;;2.83;1.10;;;;;;;21.11;75.42;102443.91;5011350;28;96858;-27
2023/08/21 07:03:53;;;;;;;4.05;0.95;;;;;;;21.28;75.44;102449.94;5010592;28;101454;-27
2023/08/21 07:06:18;;;;;;;2.72;0.88;;;;;;;21.45;74.62;102454.97;5012536;28;97286;-26
2023/08/21 07:08:44;;;;;;;3.35;1.20;;;;;;;21.58;74.20;102454.84;5012788;28;96613;-27
2023/08/21 07:11:10;;;;;;;4.05;1.02;;;;;;;21.73;73.81;102445.28;5012080;28;96535;-26
2023/08/21 07:13:36;;;;;;;3.25;1.40;;;;;;;21.93;73.53;102451.91;5012484;28;97975;-27
2023/08/21 07:16:02;;;;;;;4.75;1.75;;;;;;;22.05;73.35;102450.88;5010639;28;100725;-26
2023/08/21 07:18:29;;;;;;;8.82;1.40;;;;;;;22.19;72.95;102444.16;5011007;28;96621;-27
2023/08/21 07:20:55;;;;;;;6.05;1.77;;;;;;;22.36;72.52;102450.16;5011375;28;96831;-27
2023/08/21 07:23:20;;;;;;;3.05;1.15;;;;;;;22.45;71.78;102455.78;5012303;28;98136;-26
2023/08/21 07:25:46;;;;;;;3.03;0.90;;;;;;;22.61;71.96;102447.00;5011828;28;99251;-27
2023/08/21 07:28:11;;;;;;;5.90;1.33;;;;;;;22.68;70.77;102448.22;5011705;28;96759;-27
2023/08/21 07:30:38;;;;;;;2.55;0.93;;;;;;;22.83;70.54;102467.22;5012044;28;96936;-26
2023/08/21 07:33:04;;;;;;;1.55;0.85;;;;;;;22.87;70.51;102468.72;5010698;28;100913;-26
2023/08/21 07:35:30;;;;;;;4.45;1.10;;;;;;;23.02;70.21;102463.72;5010572;28;100855;-26
2023/08/21 07:37:55;;;;;;;3.20;1.35;;;;;;;23.04;70.13;102465.34;5011962;28;96506;-27
2023/08/21 07:40:21;;;;;;;2.65;1.23;;;;;;;23.11;70.04;102454.63;5012156;28;96826;-26
2023/08/21 07:42:46;;;;;;;3.53;1.40;;;;;;;23.24;69.41;102468.22;5012141;28;98008;-27
2023/08/21 07:45:11;;;;;;;3.53;1.23;;;;;;;23.40;69.05;102464.94;5012323;28;97758;-26
2023/08/21 07:47:37;;;;;;;5.05;1.52;;;;;;;23.45;69.04;102468.16;5012449;28;96662;-27
2023/08/21 07:50:02;;;;;;;1.50;1.10;;;;;;;23.48;69.20;102457.72;5011967;28;96936;-27
2023/08/21 07:52:28;;;;;;;5.53;1.27;;;;;;;23.69;68.75;102460.41;5011349;28;99296;-26
2023/08/21 07:54:53;;;;;;;6.53;1.52;;;;;;;23.91;68.21;102467.63;5011955;28;97237;-26
2023/08/21 07:57:19;;;;;;;5.15;1.30;;;;;;;24.07;67.76;102469.81;5010301;28;96606;-26
2023/08/21 07:59:44;;;;;;;4.97;1.40;;;;;;;24.22;67.03;102478.63;5011691;28;96825;-26
2023/08/21 08:02:12;;;;;;;4.28;1.40;;;;;;;24.29;67.26;102476.16;5011668;28;98956;-26
2023/08/21 08:04:38;;;;;;;3.45;1.30;;;;;;;24.40;66.85;102478.75;5010360;28;98967;-27
2023/08/21 08:07:03;;;;;;;6.43;1.65;;;;;;;24.52;66.55;102480.38;5011801;28;96697;-27
2023/08/21 08:09:29;;;;;;;12.15;2.03;;;;;;;24.66;66.21;102479.06;5012302;28;96844;-27
2023/08/21 08:11:54;;;;;;;3.10;1.38;;;;;;;24.77;65.63;102483.59;5014903;28;98993;-26
2023/08/21 08:14:19;;;;;;;6.07;1.48;;;;;;;24.87;65.90;102466.94;5015048;28;98132;-27
2023/08/21 08:16:45;;;;;;;3.42;1.30;;;;;;;25.01;65.61;102470.13;5014844;28;96647;-27
2023/08/21 08:19:10;;;;;;;7.50;1.75;;;;;;;25.13;65.20;102472.72;5015298;28;96572;-26
2023/08/21 08:21:36;;;;;;;3.97;1.23;;;;;;;25.26;64.94;102470.50;5015524;28;97347;-26
2023/08/21 08:24:01;;;;;;;6.47;1.30;;;;;;;25.27;63.91;102475.03;5014541;28;99789;-26
2023/08/21 08:26:27;;;;;;;3.60;1.35;;;;;;;25.31;64.91;102482.00;5015240;28;96513;-26
2023/08/21 08:28:52;;;;;;;4.47;1.23;;;;;;;25.36;63.51;102478.78;5015133;28;96850;-26
2023/08/21 08:31:18;;;;;;;5.50;1.45;;;;;;;25.38;63.09;102483.16;5015063;28;97893;-27
2023/08/21 08:33:44;;;;;;;4.47;1.60;;;;;;;25.46;63.14;102474.09;5013781;28;101235;-26
2023/08/21 08:36:10;;;;;;;5.45;1.13;;;;;;;25.51;62.83;102466.19;5013562;28;96631;-27
2023/08/21 08:38:36;;;;;;;3.55;1.10;;;;;;;25.69;62.74;102471.78;5014341;28;97815;-27
2023/08/21 08:41:02;;;;;;;4.28;1.20;;;;;;;25.77;60.85;102466.34;5012744;28;100955;-27
2023/08/21 08:43:28;;;;;;;3.80;1.38;;;;;;;25.83;61.80;102462.06;5013330;28;101363;-26
2023/08/21 08:45:57;;;;;;;3.88;1.50;;;;;;;25.84;61.94;102466.59;5014834;28;96651;-27
2023/08/21 08:48:23;;;;;;;6.10;1.30;;;;;;;26.01;61.63;102463.00;5013323;28;96817;-27
2023/08/21 08:50:50;;;;;;;3.90;1.15;;;;;;;26.13;61.06;102466.44;5002439;28;101124;-26
2023/08/21 08:53:16;;;;;;;4.45;1.35;;;;;;;25.98;59.20;102456.88;4992762;28;101251;-26
2023/08/21 08:55:42;;;;;;;4.28;1.70;;;;;;;25.98;59.90;102465.19;4993187;28;96755;-27
2023/08/21 08:58:07;;;;;;;4.43;1.10;;;;;;;26.06;60.50;102473.63;5007029;28;96770;-27
2023/08/21 09:00:32;;;;;;;4.13;1.30;;;;;;;26.24;60.75;102470.88;4994595;28;97425;-26
2023/08/21 09:02:58;;;;;;;5.88;1.20;;;;;;;26.35;59.95;102473.41;5002711;28;98692;-28
2023/08/21 09:05:23;;;;;;;2.90;1.00;;;;;;;26.39;59.21;102472.06;5009497;28;96975;-27
2023/08/21 09:08:07;;;;;;;2.30;0.85;;;;;;;26.46;58.72;102477.88;5005232;28;96924;-27
2023/08/21 09:10:34;;;;;;;2.78;1.05;;;;;;;26.60;58.78;102480.13;4992424;28;101167;-26
2023/08/21 09:13:01;;;;;;;4.65;1.10;;;;;;;26.65;58.45;102476.84;5009975;28;100814;-28
2023/08/21 09:15:30;;;;;;;1.13;0.60;;;;;;;26.69;56.79;102465.22;5013084;28;97057;-26
2023/08/21 09:17:55;;;;;;;3.50;1.10;;;;;;;26.66;57.61;102460.00;5013595;28;97050;-27
2023/08/21 09:20:20;;;;;;;2.83;0.93;;;;;;;26.61;57.47;102465.16;5013227;28;99229;-27
2023/08/21 09:23:04;;;;;;;4.18;0.98;;;;;;;26.73;56.61;102462.16;5013147;28;98319;-26
2023/08/21 09:25:40;;;;;;;2.35;0.80;;;;;;;26.88;54.85;102463.28;4995566;28;96864;-27
2023/08/21 09:28:07;;;;;;;1.52;0.65;;;;;;;26.65;56.60;102460.19;5013960;28;96657;-26
2023/08/21 09:30:53;;;;;;;9.45;1.17;;;;;;;26.48;54.45;102459.09;5013530;28;97952;-27
2023/08/21 09:33:23;;;;;;;2.20;0.52;;;;;;;26.54;56.91;102471.53;5012507;28;100736;-26
2023/08/21 09:35:52;;;;;;;2.08;0.75;;;;;;;26.77;56.87;102449.66;5014088;28;96566;-26
2023/08/21 09:38:19;;;;;;;0.95;0.57;;;;;;;27.02;56.20;102451.56;5013597;28;97001;-26
2023/08/21 09:40:51;;;;;;;1.90;0.77;;;;;;;27.24;55.83;102450.16;5012375;28;100981;-27
2023/08/21 09:43:17;;;;;;;3.38;0.98;;;;;;;27.37;55.09;102454.44;5013706;28;97376;-27
2023/08/21 09:45:55;;;;;;;3.05;0.77;;;;;;;27.56;53.58;102458.88;5014021;28;96795;-27
2023/08/21 09:48:27;;;;;;;5.82;1.00;;;;;;;27.66;53.37;102462.38;5012799;28;96822;-27
2023/08/21 09:50:53;;;;;;;3.58;0.65;;;;;;;27.28;54.67;102457.16;5012119;28;101068;-27
2023/08/21 09:53:22;;;;;;;5.13;1.00;;;;;;;26.98;54.24;102444.63;5012085;28;101007;-26
2023/08/21 09:55:53;;;;;;;1.33;0.60;;;;;;;26.67;55.90;102458.09;5010200;28;97654;-26
2023/08/21 09:58:20;;;;;;;2.08;0.80;;;;;;;26.64;56.12;102448.16;5011692;28;97099;-26
2023/08/21 10:00:48;;;;;;;2.30;0.88;;;;;;;27.06;55.65;102453.00;5012197;28;100975;-27
2023/08/21 10:03:19;;;;;;;2.78;0.85;;;;;;;27.07;54.33;102439.94;5011981;28;100801;-26
2023/08/21 10:05:47;;;;;;;;;;;;;;;27.20;52.43;102456.25;5012673;28;96712;-27
2023/08/21 10:08:17;;;;;;;1.20;0.63;;;;;;;27.42;52.02;102446.44;5013310;28;96886;-26
2023/08/21 10:10:43;;;;;;;1.55;0.77;;;;;;;27.53;53.36;102441.47;5011962;28;101273;-27
2023/08/21 10:13:09;;;;;;;3.03;0.90;;;;;;;27.57;52.24;102449.47;5013370;28;99324;-28
2023/08/21 10:15:37;;;;;;;4.15;1.00;;;;;;;27.64;51.34;102448.63;5012232;28;96895;-26
2023/08/21 10:18:32;;;;;;;3.13;0.90;;;;;;;27.92;50.92;102457.63;5011955;28;96617;-26
2023/08/21 10:21:17;;;;;;;2.17;0.55;;;;;;;28.15;50.18;102448.59;5010150;28;101017;-27
2023/08/21 10:23:46;;;;;;;2.15;0.82;;;;;;;28.30;50.32;102455.28;5011912;28;100730;-26
2023/08/21 10:26:12;;;;;;;2.53;0.90;;;;;;;28.47;50.62;102453.41;5011829;28;96593;-26
2023/08/21 10:28:51;;;;;;;4.35;0.98;;;;;;;28.26;50.10;102455.78;5013459;28;96501;-27
2023/08/21 10:31:27;;;;;;;3.17;1.00;;;;;;;28.28;49.88;102442.56;5011440;28;101046;-27
2023/08/21 10:33:53;;;;;;;2.00;0.70;;;;;;;28.39;50.73;102439.44;5010271;28;100714;-26
2023/08/21 10:36:43;;;;;;;2.90;0.90;;;;;;;28.56;49.97;102446.78;5013251;28;96587;-26
2023/08/21 10:39:19;;;;;;;4.78;1.13;;;;;;;28.72;49.34;102434.75;5013349;28;96899;-26
2023/08/21 10:42:00;;;;;;;1.98;0.80;;;;;;;28.86;47.09;102440.66;5011414;28;101240;-26
2023/08/21 10:44:34;;;;;;;1.88;0.90;;;;;;;28.99;48.79;102446.56;5012672;28;97248;-26
2023/08/21 10:47:22;;;;;;;1.75;0.85;;;;;;;28.99;49.13;102440.97;5012476;28;96534;-26
2023/08/21 10:49:50;;;;;;;4.20;0.82;;;;;;;29.05;49.56;102434.66;5011359;28;96723;-26
2023/08/21 10:52:27;;;;;;;2.72;1.10;;;;;;;29.20;48.71;102435.72;5012448;28;99665;-27
2023/08/21 10:54:55;;;;;;;3.00;0.88;;;;;;;29.04;48.67;102432.09;5011238;28;100713;-26
2023/08/21 10:57:22;;;;;;;2.47;0.80;;;;;;;29.10;49.10;102434.19;5011400;28;96555;-26
2023/08/21 10:59:50;;;;;;;1.42;0.70;;;;;;;29.26;47.41;102441.63;5011277;28;96944;-26
2023/08/21 11:02:16;;;;;;;2.63;0.82;;;;;;;29.30;48.27;102434.66;5012554;28;97140;-27
2023/08/21 11:04:44;;;;;;;5.47;1.00;;;;;;;29.39;48.83;102430.75;5011403;28;101091;-28
2023/08/21 11:07:09;;;;;;;3.83;0.93;;;;;;;29.44;47.33;102422.72;5011731;28;96909;-27
2023/08/21 11:09:36;;;;;;;2.42;0.75;;;;;;;29.40;46.31;102433.38;5011216;28;96894;-27
2023/08/21 11:12:12;;;;;;;3.95;1.00;;;;;;;29.28;46.92;102442.34;5010310;28;101175;-26
2023/08/21 11:14:39;;;;;;;1.92;0.80;;;;;;;29.37;47.70;102430.09;5010517;28;100736;-26
2023/08/21 11:17:05;;;;;;;2.30;0.98;;;;;;;29.32;48.10;102438.09;5011151;28;96800;-27
2023/08/21 11:19:33;;;;;;;3.35;0.90;;;;;;;29.51;47.65;102443.28;5011375;28;96835;-26
2023/08/21 11:22:03;;;;;;;2.17;0.77;;;;;;;29.59;47.22;102439.59;5010926;28;100846;-27